Details From KBFI - Boeing Field King Co Intl
To KTIW - Tacoma Narrows
Flight Number -
Tags Decoded
Created
Modified
Stats Distance 21 nm / 39 km
Max Altitude 0 ft / 0 m
Waypoints 3
Social Downloads 7
Likes 0
Share VATSIM

Download

Looking for another format? Having issues loading an existing format? Contact us
Advertisement - Login to hide

Notes

Decoded

Route

KBFI SEA KTIW

ID Type Via Altitude Latitude Longitude Leg Dist Tot Dist Heading (true) Name
O KBFI APT - 0 ft / 0 m 47.54054˚ -122.31136˚ - 0 nm - -
SEA VOR - 0 ft / 0 m 47.43539˚ -122.30961˚ 6 nm 6 nm 179° / 179° SEATTLE VORTAC
O KTIW APT - 0 ft / 0 m 47.27474˚ -122.57688˚ 14 nm 20 nm 229° / 228° TACOMA NARROWS

Altitude Profile

Advertisement - Login to hide

KBFI

Details ICAO KBFI (BFI)
Name Boeing Field King Co Intl
Region United States
Timezone America/Los_Angeles (UTC-8.0)
Stats Elevation 20 ft / 6 m (AMSL)
Location 47.531101° -122.302515°
Runways 2
Magnetic Variation 15.702° E

METAR

KBFI 151953Z VRB04KT 10SM OVC019 07/03 A3020 RMK AO2 SLP224 T00720028

Decode

TAF

TAF KBFI 151750Z 1518/1618 17008KT P6SM VCSH BKN045 OVC060 FM152000 18008KT 5SM -RA BR BKN015 OVC040 FM160000 21008KT 6SM -SHRA BR BKN025 BKN040 FM160400 21006KT P6SM BKN025 BKN040 FM160800 VRB04KT P6SM BKN020

Decode

Departure Runways

ID Width Length Bearing (true) Bearing (mag) Surface Threshold Offset Overrun Length
13L 100 ft / 30 m 3,708 ft / 1,130 m 150.28° 134.58° Asphalt 240 ft / 73 m 0 ft / 0 m
13R 200 ft / 61 m 9,997 ft / 3,047 m 150.27° 134.57° Asphalt 0 ft / 0 m 896 ft / 273 m
31L 200 ft / 61 m 9,997 ft / 3,047 m 330.29° 314.59° Asphalt 879 ft / 268 m 151 ft / 46 m
31R 100 ft / 30 m 3,708 ft / 1,130 m 330.28° 314.58° Asphalt 364 ft / 111 m 0 ft / 0 m

KTIW

Details ICAO KTIW (TIW)
Name TACOMA NARROWS
Region United States
Timezone America/Los_Angeles (UTC-8.0)
Stats Elevation 292 ft / 89 m (AMSL)
Location 47.267930° -122.578113°
Runways 1
Magnetic Variation 15.689° E

METAR

KTIW 151957Z 19005KT 1 1/2SM -RA BR OVC012 04/03 A3019 RMK AO2 VIS S 8 P0000 T00390028

Decode

TAF

Not found

Destination Runways

ID Width Length Bearing (true) Bearing (mag) Surface Threshold Offset Overrun Length
17 150 ft / 46 m 5,004 ft / 1,525 m 186.99° 171.30° Asphalt 0 ft / 0 m 0 ft / 0 m
35 150 ft / 46 m 5,004 ft / 1,525 m 6.99° 351.30° Asphalt 0 ft / 0 m 0 ft / 0 m

Approach Navaids

Runway Type Ident Frequency Range Bearing (true) Bearing (mag) Slope Elevation
17 Localiser ITIW 109.10 MHz 18 nm / 33 km 186.99° 171.30° - 292 ft / 89 m (AMSL)
17 Glidescope ITIW 109.10 MHz 10 nm / 19 km 186.99° 171.30° 3.00° 292 ft / 89 m (AMSL)

Popular Alternatives